createdAt,value
2018-08-03T05:54:10.950Z,24.34
2018-08-03T05:55:10.832Z,24.21
2018-08-03T05:56:10.829Z,24.28
2018-08-03T05:57:10.874Z,24.15
2018-08-03T05:58:10.829Z,24.08
2018-08-03T05:59:10.863Z,24.00
2018-08-03T06:00:10.891Z,23.96
2018-08-03T06:01:11.002Z,23.92
2018-08-03T06:02:12.945Z,23.81
2018-08-03T06:03:11.035Z,23.78
2018-08-03T06:04:10.746Z,23.81
2018-08-03T06:05:10.951Z,23.86
2018-08-03T06:06:10.895Z,23.88
2018-08-03T06:07:10.884Z,23.86
2018-08-03T06:08:10.914Z,23.84
2018-08-03T06:09:10.910Z,23.91
2018-08-03T06:10:10.844Z,23.89
2018-08-03T06:11:10.856Z,23.97
2018-08-03T06:13:46.626Z,24.03
2018-08-03T06:15:56.625Z,23.89
2018-08-03T06:18:12.853Z,23.89
2018-08-03T06:21:07.297Z,24.00
2018-08-03T06:21:44.376Z,24.03
2018-08-03T06:22:44.341Z,24.03
2018-08-03T06:23:44.465Z,24.21
2018-08-03T06:24:44.333Z,24.13
2018-08-03T06:25:44.353Z,24.18
2018-08-03T06:26:46.157Z,24.18
2018-08-03T06:27:44.233Z,24.13
2018-08-03T06:28:44.036Z,24.31
2018-08-03T06:29:44.286Z,24.40
2018-08-03T06:30:44.037Z,24.41
2018-08-03T06:31:51.339Z,24.48
2018-08-03T06:32:44.539Z,24.53
2018-08-03T06:33:44.280Z,24.62
2018-08-03T06:34:43.997Z,24.66
2018-08-03T06:35:44.108Z,24.74
2018-08-03T06:36:44.045Z,24.82
2018-08-03T06:37:44.563Z,24.84
2018-08-03T06:38:43.927Z,24.91
2018-08-03T06:39:43.938Z,24.97
2018-08-03T06:40:43.929Z,25.00
2018-08-03T06:41:43.911Z,25.03
2018-08-03T06:42:43.900Z,25.11
2018-08-03T06:43:44.025Z,25.08
2018-08-03T06:44:43.873Z,25.11
2018-08-03T06:45:43.858Z,25.15
2018-08-03T06:46:43.842Z,25.19
2018-08-03T06:47:43.839Z,25.26
2018-08-03T06:48:43.835Z,25.23
2018-08-03T06:49:43.863Z,25.30
2018-08-03T06:50:43.819Z,25.34
2018-08-03T06:51:43.824Z,25.36
2018-08-03T06:52:43.781Z,25.34
2018-08-03T06:53:43.921Z,25.52
2018-08-03T06:54:44.055Z,25.51
2018-08-03T06:55:43.811Z,25.61
2018-08-03T06:56:43.908Z,25.59
2018-08-03T06:57:43.893Z,25.58
2018-08-03T12:39:06.334Z,45.72
2018-08-03T12:40:06.083Z,46.01
2018-08-03T12:41:06.104Z,45.57
2018-08-03T12:42:06.076Z,45.68
2018-08-03T12:43:06.067Z,45.67
2018-08-03T12:44:06.273Z,45.52
2018-08-03T12:45:06.218Z,45.60
2018-08-03T12:46:06.313Z,45.71
2018-08-03T12:47:06.217Z,46.21
2018-08-03T12:48:06.215Z,46.59
2018-08-03T12:49:06.206Z,46.98
2018-08-03T12:50:06.276Z,47.17
2018-08-03T12:51:06.195Z,46.95
2018-08-03T12:52:06.182Z,46.23
2018-08-03T12:53:06.164Z,44.53
2018-08-03T12:54:06.001Z,43.30
2018-08-03T12:55:06.146Z,42.91
2018-08-03T12:56:06.205Z,43.51
2018-08-03T12:57:06.190Z,42.87
2018-08-03T12:58:06.180Z,42.76
2018-08-03T12:59:05.994Z,43.23
2018-08-03T13:00:06.117Z,43.15
2018-08-03T13:01:06.172Z,42.93
2018-08-03T13:02:06.181Z,42.41
2018-08-03T13:03:05.922Z,41.87
2018-08-03T13:04:06.081Z,41.59
2018-08-03T13:05:06.107Z,41.55
2018-08-03T13:06:06.074Z,41.74
2018-08-03T13:07:06.008Z,41.66
2018-08-03T13:08:06.169Z,42.03
2018-08-03T13:09:05.903Z,42.46
2018-08-03T13:10:05.905Z,42.47
2018-08-03T13:11:06.045Z,42.50
2018-08-03T13:12:06.022Z,43.05
2018-08-03T13:13:06.143Z,43.78
2018-08-03T13:14:06.009Z,43.88
2018-08-03T13:15:05.999Z,43.37
2018-08-03T13:16:05.988Z,43.05
2018-08-03T13:17:06.008Z,43.32
2018-08-03T13:18:06.000Z,43.32
2018-08-03T13:19:06.020Z,42.31
2018-08-03T13:20:05.973Z,41.50
2018-08-03T13:21:05.975Z,40.94
2018-08-03T13:22:05.948Z,40.25
2018-08-03T13:23:05.937Z,39.57
2018-08-03T13:24:06.131Z,39.17
2018-08-03T13:25:05.979Z,39.77
2018-08-03T13:26:05.943Z,39.92
2018-08-03T13:27:06.048Z,38.92
2018-08-03T13:28:05.754Z,38.25
2018-08-03T13:29:05.750Z,37.83
2018-08-03T13:30:06.108Z,37.54
2018-08-03T21:51:36.855Z,31.20
2018-08-03T21:52:36.735Z,31.15
2018-08-03T21:53:36.614Z,31.12
2018-08-03T21:54:36.623Z,31.14
2018-08-03T21:55:36.660Z,31.12
2018-08-03T21:56:36.782Z,31.05
2018-08-03T21:57:36.716Z,31.05
2018-08-03T21:58:36.990Z,31.05
2018-08-03T21:59:36.672Z,31.08
2018-08-03T22:00:36.942Z,31.05
2018-08-03T22:01:37.012Z,31.08
2018-08-03T22:02:36.866Z,31.07
2018-08-03T22:03:37.293Z,31.07
2018-08-03T22:04:36.545Z,30.99
2018-08-03T22:05:36.540Z,30.99
2018-08-03T22:06:36.546Z,30.93
2018-08-03T22:07:36.691Z,30.88
2018-08-03T22:08:36.634Z,30.93
2018-08-03T22:09:36.630Z,30.85
2018-08-03T22:10:36.531Z,30.73
2018-08-03T22:11:36.483Z,30.64
2018-08-03T22:12:36.612Z,30.52
2018-08-03T22:13:36.742Z,30.40
2018-08-03T22:14:36.444Z,30.24
2018-08-03T22:15:36.793Z,30.21
2018-08-03T22:16:36.575Z,29.58
2018-08-03T22:17:37.023Z,28.91
2018-08-03T22:18:36.576Z,28.59
2018-08-03T22:19:36.568Z,28.37
2018-08-03T22:20:37.806Z,27.90
2018-08-03T22:21:36.475Z,27.78
2018-08-03T22:23:28.130Z,27.75
2018-08-03T22:24:28.089Z,27.58
2018-08-03T22:25:27.929Z,27.60
2018-08-03T22:26:27.904Z,27.45
2018-08-03T22:27:27.881Z,27.37
2018-08-03T22:28:28.094Z,27.35
2018-08-03T22:29:28.029Z,27.23
2018-08-03T22:30:28.068Z,27.05
2018-08-03T22:31:28.014Z,26.93
2018-08-03T22:32:27.940Z,26.73
2018-08-03T22:33:27.991Z,26.64
2018-08-03T22:34:28.031Z,26.34
2018-08-03T22:35:27.981Z,26.28
2018-08-03T22:36:27.998Z,26.24
2018-08-03T22:37:27.954Z,26.16
2018-08-03T22:38:27.936Z,26.10
2018-08-03T22:39:27.935Z,26.07
2018-08-03T22:40:27.927Z,26.15
2018-08-03T22:41:28.027Z,26.10
2018-08-03T22:42:27.909Z,26.05
2018-08-03T22:43:27.903Z,26.00
2018-08-03T22:44:27.897Z,26.00
2018-08-03T22:45:27.932Z,25.88
2018-08-03T22:46:27.857Z,25.96
2018-08-03T22:47:27.882Z,25.88
2018-08-03T23:03:14.438Z,25.23
2018-08-03T23:04:14.669Z,25.18
2018-08-03T23:05:14.552Z,25.23
2018-08-03T23:06:14.538Z,25.19
2018-08-03T23:07:14.411Z,25.16
2018-08-03T23:08:14.474Z,25.19
2018-08-03T23:09:14.339Z,25.15
2018-08-03T23:10:14.418Z,25.14
2018-08-03T23:11:14.345Z,25.16
2018-08-03T23:12:14.316Z,25.18
2018-08-03T23:13:14.292Z,25.18
2018-08-03T23:14:14.294Z,25.26
2018-08-03T23:15:14.294Z,25.14
2018-08-03T23:16:14.388Z,25.18
2018-08-03T23:17:14.419Z,25.15
2018-08-03T23:18:14.247Z,25.15
2018-08-03T23:19:14.232Z,25.04
2018-08-03T23:20:14.390Z,25.00
2018-08-03T23:21:14.573Z,24.89
2018-08-03T23:22:14.368Z,24.84
2018-08-03T23:23:14.349Z,24.78
2018-08-03T23:24:14.339Z,24.68
2018-08-03T23:25:14.336Z,24.66
2018-08-03T23:26:14.217Z,24.59
2018-08-03T23:27:14.359Z,24.48
2018-08-03T23:28:14.300Z,24.48
2018-08-03T23:29:14.294Z,24.43
2018-08-03T23:30:14.284Z,24.41
2018-08-03T23:31:14.133Z,24.51
2018-08-03T23:32:14.352Z,24.47
2018-08-03T23:33:14.248Z,24.56
2018-08-03T23:34:14.241Z,24.44
2018-08-03T23:35:14.231Z,24.44
2018-08-03T23:36:14.218Z,24.41
2018-08-03T23:37:14.205Z,24.40
2018-08-03T23:38:14.236Z,24.37
2018-08-03T23:39:14.191Z,24.36
2018-08-03T23:40:14.176Z,24.34
2018-08-03T23:41:14.165Z,24.28
2018-08-03T23:42:14.152Z,24.37
2018-08-03T23:43:14.180Z,24.28
2018-08-03T23:44:14.128Z,24.26
2018-08-03T23:45:14.116Z,24.29
2018-08-03T23:46:14.109Z,24.31
2018-08-03T23:47:14.102Z,24.23
2018-08-03T23:48:14.095Z,24.19
2018-08-03T23:49:14.133Z,24.29
2018-08-03T23:50:13.943Z,24.25
2018-08-03T23:51:14.056Z,24.22
2018-08-03T23:52:14.046Z,24.22
2018-08-03T23:53:14.029Z,24.28
2018-08-03T23:54:14.113Z,24.26
2018-08-03T23:55:14.016Z,24.33
2018-08-03T23:56:14.005Z,24.25
2018-08-03T23:57:13.993Z,24.29
2018-08-03T23:58:13.986Z,24.40
2018-08-03T23:59:13.976Z,24.31
